createdAt,value
2022-12-03T07:53:01.199Z,74.03
2022-12-03T07:55:29.167Z,71.30
2022-12-03T07:57:57.196Z,76.70
2022-12-03T08:00:25.470Z,68.85
2022-12-03T08:02:53.476Z,77.13
2022-12-03T08:05:21.513Z,69.22
2022-12-03T08:07:49.599Z,67.95
2022-12-03T08:10:19.410Z,85.90
2022-12-03T08:12:47.863Z,69.80
2022-12-03T08:15:18.112Z,73.90
2022-12-03T08:17:48.277Z,71.13
2022-12-03T08:20:18.996Z,76.53
2022-12-03T08:22:51.129Z,71.72
2022-12-03T08:25:23.562Z,72.03
2022-12-03T08:27:53.081Z,79.78
2022-12-03T08:30:21.673Z,81.20
2022-12-03T08:32:50.309Z,77.82
2022-12-03T08:35:24.218Z,64.57
2022-12-03T08:38:02.238Z,75.72
2022-12-03T08:40:36.568Z,79.88
2022-12-03T08:43:15.701Z,66.53
2022-12-03T08:45:44.272Z,75.63
2022-12-03T08:48:34.850Z,81.60
2022-12-03T08:51:10.428Z,76.30
2022-12-03T08:53:43.180Z,79.60
2022-12-03T08:58:49.432Z,63.42
2022-12-03T09:01:32.004Z,64.55
2022-12-03T09:04:16.431Z,70.75
2022-12-03T09:06:44.493Z,69.75
2022-12-03T09:09:12.667Z,70.82
2022-12-03T09:11:44.585Z,66.65
2022-12-03T09:14:18.931Z,66.53
2022-12-03T09:16:48.075Z,62.30
2022-12-03T09:19:16.618Z,70.40
2022-12-03T09:21:44.575Z,70.88
2022-12-03T09:24:12.868Z,58.42
2022-12-03T09:26:42.336Z,67.03
2022-12-03T09:29:12.286Z,63.35
2022-12-03T09:31:41.585Z,67.57
2022-12-03T09:34:10.984Z,60.15
2022-12-03T09:36:39.121Z,63.83
2022-12-03T09:39:07.165Z,58.65
2022-12-03T09:41:35.269Z,62.03
2022-12-03T09:44:05.751Z,61.92
2022-12-03T09:46:35.980Z,59.20
2022-12-03T09:49:10.843Z,64.40
2022-12-03T09:51:42.388Z,57.25
2022-12-03T09:54:16.614Z,59.42
2022-12-03T09:56:44.672Z,63.30
2022-12-03T09:59:16.658Z,60.33
2022-12-03T10:01:45.204Z,56.10
2022-12-03T10:04:13.532Z,54.42
2022-12-03T10:06:45.729Z,60.47
2022-12-03T10:09:17.431Z,55.55
2022-12-03T10:11:45.768Z,60.78
2022-12-03T10:14:18.694Z,57.70
2022-12-03T10:16:47.463Z,51.58
2022-12-03T10:19:21.212Z,62.42
2022-12-03T10:21:49.261Z,54.20
2022-12-03T10:24:26.767Z,58.22
2022-12-03T10:26:56.995Z,53.33
2022-12-03T10:29:33.127Z,56.35
2022-12-03T10:32:03.653Z,62.17
2022-12-03T10:34:33.554Z,52.08
2022-12-03T10:37:28.303Z,53.03
2022-12-03T10:39:59.616Z,51.28
2022-12-03T10:42:29.654Z,50.92
2022-12-03T10:45:30.571Z,50.80
2022-12-03T10:48:08.369Z,48.67
2022-12-03T10:50:43.076Z,48.17
2022-12-03T10:53:12.624Z,52.10
2022-12-03T10:56:00.837Z,48.05
2022-12-03T10:58:46.289Z,45.95
2022-12-03T11:04:19.089Z,42.30
2022-12-03T11:06:47.261Z,46.75
2022-12-03T11:09:19.795Z,48.55
2022-12-03T11:11:48.124Z,45.53
2022-12-03T11:14:55.088Z,39.42
2022-12-03T11:17:44.329Z,39.80
2022-12-03T11:20:35.379Z,42.33
2022-12-03T11:23:04.938Z,43.92
2022-12-03T11:25:47.915Z,41.72
2022-12-03T11:31:03.368Z,36.65
2022-12-03T11:33:33.481Z,39.42
2022-12-03T11:36:13.280Z,42.28
2022-12-03T11:38:52.637Z,40.05
2022-12-03T11:41:23.809Z,39.15
2022-12-03T11:44:20.390Z,37.53
2022-12-03T11:46:49.651Z,42.30
2022-12-03T11:49:26.913Z,35.75
2022-12-03T11:51:54.941Z,37.95
2022-12-03T11:54:25.548Z,40.10
2022-12-03T11:56:54.573Z,37.95
2022-12-03T11:59:22.686Z,42.03
2022-12-03T12:01:50.653Z,43.22
2022-12-03T12:04:31.579Z,39.05
2022-12-03T12:06:59.800Z,50.75
2022-12-03T12:09:52.168Z,40.08
2022-12-03T12:12:31.478Z,34.45
2022-12-03T12:15:00.425Z,37.90
2022-12-03T12:17:33.539Z,40.75
2022-12-03T12:20:27.825Z,39.78
2022-12-03T12:22:56.696Z,36.30
2022-12-03T12:25:40.303Z,39.20
2022-12-03T12:28:09.454Z,35.92
2022-12-03T12:30:37.471Z,38.20
2022-12-03T12:33:23.343Z,41.97
2022-12-03T12:35:52.341Z,41.97
2022-12-03T12:38:22.113Z,39.92
2022-12-03T12:40:52.339Z,40.53
2022-12-03T12:43:24.851Z,41.25
2022-12-03T12:48:26.395Z,41.20
2022-12-03T12:51:07.194Z,40.63
2022-12-03T12:53:37.007Z,42.55
2022-12-03T12:56:14.520Z,39.28
2022-12-03T12:58:43.467Z,43.83
2022-12-03T13:01:21.169Z,35.88
2022-12-03T13:03:51.747Z,40.88
2022-12-03T13:06:24.870Z,36.22
2022-12-03T13:08:53.705Z,41.15
2022-12-03T13:11:35.537Z,46.70
2022-12-03T13:14:08.441Z,37.88
2022-12-03T13:16:36.735Z,40.67
2022-12-03T13:19:17.820Z,35.33
2022-12-03T13:21:46.170Z,37.75
2022-12-03T13:24:30.086Z,35.80
2022-12-03T13:27:00.541Z,35.75
2022-12-03T13:29:29.163Z,34.30
2022-12-03T13:31:59.404Z,47.67
2022-12-03T13:34:29.367Z,37.17
2022-12-03T13:36:58.723Z,32.85
2022-12-03T13:39:33.030Z,36.38
2022-12-03T13:42:34.431Z,36.63
2022-12-03T13:45:03.883Z,42.85
2022-12-03T13:47:33.261Z,38.10
2022-12-03T13:50:04.732Z,40.42
2022-12-03T13:52:35.839Z,38.50
2022-12-03T13:55:04.736Z,40.95
2022-12-03T13:57:34.160Z,31.98
2022-12-03T14:00:02.138Z,34.95
2022-12-03T14:02:30.195Z,33.80
2022-12-03T14:05:00.417Z,38.80
2022-12-03T14:07:28.998Z,34.95
2022-12-03T14:09:57.356Z,36.30
2022-12-03T14:12:29.098Z,36.67
2022-12-03T14:14:58.607Z,35.42
2022-12-03T14:17:26.639Z,33.80
2022-12-03T14:19:54.981Z,35.78
2022-12-03T14:22:25.448Z,36.95
2022-12-03T14:24:54.077Z,38.55
2022-12-03T14:27:22.308Z,38.42
2022-12-03T14:29:50.443Z,32.70
2022-12-03T14:32:19.845Z,34.55
2022-12-03T14:34:47.848Z,33.97
2022-12-03T14:37:15.945Z,34.80
2022-12-03T14:39:43.915Z,37.47
2022-12-03T14:42:14.494Z,32.42
2022-12-03T14:44:43.254Z,35.83
2022-12-03T14:47:11.758Z,36.30
2022-12-03T14:49:41.197Z,32.78
2022-12-03T14:52:13.085Z,36.88
2022-12-03T14:54:42.776Z,38.23
2022-12-03T14:57:12.777Z,35.75
2022-12-03T14:59:43.740Z,33.75
2022-12-03T15:02:12.987Z,33.70
2022-12-03T15:04:42.857Z,37.35
2022-12-03T15:07:11.775Z,32.10
2022-12-03T15:09:41.949Z,30.42
2022-12-03T15:12:09.971Z,36.88
2022-12-03T15:14:43.007Z,34.15
2022-12-03T15:17:11.036Z,32.88
2022-12-03T15:19:41.647Z,33.90
2022-12-03T15:22:11.070Z,36.95
2022-12-03T15:24:39.099Z,36.72
2022-12-03T15:27:07.106Z,37.15
2022-12-03T15:29:35.089Z,34.03
2022-12-03T15:32:03.638Z,37.03
2022-12-03T15:34:31.642Z,38.20
2022-12-03T15:36:59.838Z,34.33
2022-12-03T15:39:30.059Z,34.40
2022-12-03T15:41:59.449Z,38.80
2022-12-03T15:44:27.469Z,37.33
2022-12-03T15:46:58.147Z,33.90
2022-12-03T15:49:26.223Z,34.85
2022-12-03T15:51:54.619Z,44.90
2022-12-03T15:54:22.680Z,36.03
2022-12-03T15:56:56.961Z,38.38
2022-12-03T15:59:25.907Z,37.05
2022-12-03T16:01:53.966Z,38.42
2022-12-03T16:04:22.373Z,32.97
2022-12-03T16:06:50.776Z,34.63
2022-12-03T16:09:23.657Z,37.08
2022-12-03T16:11:56.366Z,39.42
2022-12-03T16:14:24.307Z,38.38
2022-12-03T16:16:52.606Z,36.28
2022-12-03T16:19:20.607Z,36.03
2022-12-03T16:21:51.455Z,38.53
2022-12-03T16:24:19.684Z,38.10
2022-12-03T16:52:07.916Z,39.78
2022-12-03T16:54:36.088Z,45.60
2022-12-03T16:57:05.920Z,38.85
2022-12-03T16:59:34.147Z,40.53
2022-12-03T17:02:03.640Z,43.45
2022-12-03T17:04:32.229Z,41.92
2022-12-03T17:07:00.346Z,42.83
2022-12-03T17:09:28.780Z,43.83
2022-12-03T17:11:56.918Z,43.10
2022-12-03T17:14:28.638Z,51.08
2022-12-03T17:17:01.873Z,46.63
2022-12-03T17:19:31.626Z,48.13
2022-12-03T17:21:59.975Z,47.30
2022-12-03T17:24:28.405Z,45.60
2022-12-03T17:26:56.838Z,43.38
2022-12-03T17:29:25.005Z,46.83
2022-12-03T17:31:53.134Z,51.63
2022-12-03T17:34:21.328Z,49.75
2022-12-03T17:36:50.789Z,50.90
2022-12-03T17:39:18.989Z,48.60
2022-12-03T17:41:47.422Z,50.75
2022-12-03T17:44:20.813Z,50.88
2022-12-03T17:46:49.526Z,50.88
2022-12-03T17:49:17.677Z,49.13
2022-12-03T17:51:45.800Z,51.10
2022-12-03T17:54:15.396Z,50.78
2022-12-03T17:56:44.200Z,48.40
2022-12-03T17:59:13.443Z,48.38
2022-12-03T18:01:41.757Z,48.75
2022-12-03T18:04:13.008Z,49.58
2022-12-03T18:06:41.261Z,57.03
2022-12-03T18:09:09.436Z,53.13
2022-12-03T18:11:39.442Z,52.33
2022-12-03T18:14:07.687Z,53.05
2022-12-03T18:16:36.344Z,54.70
2022-12-03T18:19:06.408Z,56.35
2022-12-03T18:21:37.106Z,60.13
2022-12-03T18:24:05.900Z,49.17
2022-12-03T18:26:34.416Z,66.45
2022-12-03T18:29:05.879Z,61.60
2022-12-03T18:31:34.933Z,60.70
2022-12-03T18:34:03.136Z,60.55
2022-12-03T18:36:36.376Z,50.83
2022-12-03T18:39:09.249Z,61.10
2022-12-03T18:44:10.839Z,63.45
2022-12-03T18:46:53.574Z,70.22
2022-12-03T18:49:23.500Z,66.10
2022-12-03T18:51:58.724Z,66.72
2022-12-03T18:54:27.680Z,66.10
2022-12-03T18:56:55.939Z,59.88
2022-12-03T18:59:25.343Z,63.53
2022-12-03T19:01:53.911Z,73.20
2022-12-03T19:04:22.206Z,61.80
2022-12-03T19:06:50.568Z,62.85
2022-12-03T19:09:19.392Z,73.57
2022-12-03T19:11:48.073Z,70.13
2022-12-03T19:14:16.868Z,66.57
2022-12-03T19:16:46.910Z,66.70
2022-12-03T19:19:15.409Z,67.18
2022-12-03T19:21:46.282Z,66.45
2022-12-03T19:24:30.363Z,58.70
2022-12-03T19:26:58.924Z,61.13
2022-12-03T19:29:27.335Z,68.70
2022-12-03T19:31:57.161Z,65.15
2022-12-03T19:34:25.460Z,63.28
2022-12-03T19:36:53.930Z,60.42
2022-12-03T19:39:22.476Z,64.57
2022-12-03T19:41:51.010Z,62.70
2022-12-03T19:44:20.590Z,57.63
2022-12-03T19:46:51.367Z,60.45
2022-12-03T19:49:23.610Z,60.60
2022-12-03T19:51:53.275Z,62.80
2022-12-03T19:54:22.276Z,55.78
2022-12-03T19:56:50.819Z,66.93
2022-12-03T19:59:19.546Z,65.68
2022-12-03T20:01:48.144Z,66.28
2022-12-03T20:04:16.809Z,54.35
2022-12-03T20:06:48.132Z,63.33
2022-12-03T20:09:18.084Z,60.22
2022-12-03T20:11:47.215Z,62.72
2022-12-03T20:14:18.009Z,63.15
2022-12-03T20:16:46.467Z,61.20
2022-12-03T20:19:16.854Z,63.45
2022-12-03T20:21:47.005Z,60.97
2022-12-03T20:24:18.178Z,62.85
2022-12-03T20:26:47.839Z,60.70
2022-12-03T20:29:16.417Z,66.15
2022-12-03T20:31:45.057Z,60.88
2022-12-03T20:34:14.018Z,64.68
2022-12-03T20:36:43.412Z,63.75
2022-12-03T20:39:14.647Z,62.30
2022-12-03T20:41:42.768Z,65.22
2022-12-03T20:44:11.410Z,60.00
2022-12-03T20:46:39.981Z,63.88
2022-12-03T20:49:08.836Z,62.90
2022-12-03T20:51:37.794Z,62.47
2022-12-03T20:54:06.594Z,63.25
2022-12-03T20:56:39.934Z,68.15
2022-12-03T20:59:12.636Z,65.72
2022-12-03T21:01:41.180Z,58.10
2022-12-03T21:04:11.289Z,66.28
2022-12-03T21:06:42.657Z,64.63
2022-12-03T21:09:12.126Z,62.88
2022-12-03T21:11:43.095Z,64.32
2022-12-03T21:14:12.806Z,62.92
2022-12-03T21:19:31.036Z,59.47
2022-12-03T21:21:59.408Z,65.65
2022-12-03T21:24:28.028Z,71.45
2022-12-03T21:26:57.586Z,62.45
2022-12-03T21:29:26.107Z,63.47
2022-12-03T21:31:54.393Z,63.97
2022-12-03T21:34:22.846Z,67.53
2022-12-03T21:36:51.114Z,65.22
2022-12-03T21:39:23.484Z,67.18
2022-12-03T21:42:34.223Z,61.63
2022-12-03T21:44:42.665Z,68.63
2022-12-03T21:47:14.251Z,60.15
2022-12-03T21:49:42.898Z,68.03
2022-12-03T21:52:12.196Z,66.72
2022-12-03T21:54:40.839Z,64.32
2022-12-03T21:57:09.741Z,60.13
2022-12-03T21:59:38.251Z,60.85
2022-12-03T22:02:08.379Z,67.72
2022-12-03T22:04:36.507Z,66.47
2022-12-03T22:07:06.052Z,66.18
2022-12-03T22:09:34.895Z,64.00
2022-12-03T22:12:03.142Z,63.65
2022-12-03T22:14:32.882Z,62.90
2022-12-03T22:17:00.989Z,60.22
2022-12-03T22:19:33.235Z,71.35
2022-12-03T22:22:01.450Z,67.57
2022-12-03T22:24:29.531Z,65.80
2022-12-03T22:26:57.581Z,63.30
2022-12-03T22:29:25.651Z,64.70
2022-12-03T22:31:53.730Z,66.47
2022-12-03T22:34:21.751Z,60.28
2022-12-03T22:36:51.116Z,69.25
2022-12-03T22:39:19.556Z,70.13
2022-12-03T22:41:47.643Z,60.30
2022-12-03T22:44:15.672Z,70.40
2022-12-03T22:46:43.766Z,63.15
2022-12-03T22:49:13.723Z,65.97
2022-12-03T22:51:41.881Z,60.35
2022-12-03T22:54:11.779Z,69.72
2022-12-03T22:56:39.829Z,73.68
2022-12-03T22:59:08.089Z,67.35
2022-12-03T23:01:38.400Z,64.22
2022-12-03T23:04:07.996Z,67.90
2022-12-03T23:06:37.903Z,62.30
2022-12-03T23:09:07.171Z,70.95
2022-12-03T23:11:37.381Z,65.00
2022-12-03T23:14:05.836Z,65.80
2022-12-03T23:16:34.392Z,59.45
2022-12-03T23:19:03.659Z,63.10
2022-12-03T23:21:34.193Z,61.28
2022-12-03T23:24:03.619Z,66.57
2022-12-03T23:26:34.395Z,62.25
2022-12-03T23:29:04.728Z,64.07
2022-12-03T23:31:34.355Z,65.43
2022-12-03T23:34:02.783Z,60.47
2022-12-03T23:36:33.924Z,62.00
2022-12-03T23:39:01.919Z,58.70
2022-12-03T23:41:30.022Z,61.08
2022-12-03T23:43:58.111Z,66.53
2022-12-03T23:46:28.575Z,57.70
2022-12-03T23:48:58.610Z,59.08
2022-12-03T23:51:27.107Z,64.60
2022-12-03T23:53:56.255Z,59.20
2022-12-03T23:56:27.093Z,60.25
2022-12-03T23:58:55.074Z,59.70
